Time;durP1;ratioP1;P1;durP2;ratioP2;P2;SDS_P1;SDS_P2;PMS_P1;PMS_P2;Temp;Humidity;BMP_temperature;BMP_pressure;BME280_temperature;BME280_humidity;BME280_pressure;Samples;Min_cycle;Max_cycle;Signal;HPM_P1;HPM_P2
2024/01/26 00:02:15;;;;;;;7.2;5;;;;;;;6.29;100;947.4888;;;;
2024/01/26 00:04:40;;;;;;;6.2;4.8;;;;;;;6.28;100;947.4648;;;;
2024/01/26 00:07:05;;;;;;;6.1;4.9;;;;;;;6.3;100;947.483;;;;
2024/01/26 00:09:30;;;;;;;6.2;5;;;;;;;6.32;100;947.4188;;;;
2024/01/26 00:11:55;;;;;;;6.2;5.1;;;;;;;6.34;100;947.3358;;;;
2024/01/26 00:14:20;;;;;;;5.5;4.8;;;;;;;6.29;100;947.4498;;;;
2024/01/26 00:16:46;;;;;;;6.6;4.7;;;;;;;6.28;100;947.4972;;;;
2024/01/26 00:19:11;;;;;;;6.6;5.2;;;;;;;6.29;100;947.4856;;;;
2024/01/26 00:21:36;;;;;;;7.5;5.4;;;;;;;6.26;100;947.4986;;;;
2024/01/26 00:24:01;;;;;;;7;5.6;;;;;;;6.27;100;947.5584;;;;
2024/01/26 00:26:26;;;;;;;7.6;5.2;;;;;;;6.3;100;947.535;;;;
2024/01/26 00:28:51;;;;;;;7.6;5.1;;;;;;;6.3;100;947.5115;;;;
2024/01/26 00:31:18;;;;;;;5.9;4.9;;;;;;;6.34;100;947.4199;;;;
2024/01/26 00:33:42;;;;;;;7.4;5.4;;;;;;;6.32;100;947.4252;;;;
2024/01/26 00:36:07;;;;;;;8.4;5.7;;;;;;;6.31;100;947.3368;;;;
2024/01/26 00:38:31;;;;;;;6.5;5.1;;;;;;;6.28;100;947.304;;;;
2024/01/26 00:40:57;;;;;;;6.9;4.7;;;;;;;6.29;100;947.2547;;;;
2024/01/26 00:43:22;;;;;;;6.7;4.7;;;;;;;6.33;100;947.3024;;;;
2024/01/26 00:45:47;;;;;;;6.9;5.1;;;;;;;6.35;100;947.3481;;;;
2024/01/26 00:48:12;;;;;;;7.5;5;;;;;;;6.35;100;947.3077;;;;
2024/01/26 00:50:37;;;;;;;6.4;5;;;;;;;6.35;100;947.3409;;;;
2024/01/26 00:53:03;;;;;;;7.1;5.2;;;;;;;6.33;100;947.3797;;;;
2024/01/26 00:55:29;;;;;;;5.9;5;;;;;;;6.33;100;947.3752;;;;
2024/01/26 00:57:53;;;;;;;6.5;5.2;;;;;;;6.34;100;947.3516;;;;
2024/01/26 01:00:18;;;;;;;6.6;4.6;;;;;;;6.31;100;947.3859;;;;
2024/01/26 01:02:43;;;;;;;6.4;5.1;;;;;;;6.33;100;947.3312;;;;
2024/01/26 01:05:09;;;;;;;7;4.9;;;;;;;6.33;100;947.379;;;;
2024/01/26 01:07:34;;;;;;;6.4;4.7;;;;;;;6.32;100;947.384;;;;
2024/01/26 01:09:59;;;;;;;6.6;5;;;;;;;6.32;100;947.4473;;;;
2024/01/26 01:12:24;;;;;;;6.6;5;;;;;;;6.28;100;947.452;;;;
2024/01/26 01:14:49;;;;;;;7.7;6.3;;;;;;;6.27;100;947.4597;;;;
2024/01/26 01:17:14;;;;;;;6.7;6;;;;;;;6.27;100;947.4233;;;;
2024/01/26 01:19:39;;;;;;;6.7;5.8;;;;;;;6.28;100;947.3042;;;;
2024/01/26 01:22:04;;;;;;;6.2;5.6;;;;;;;6.24;100;947.3934;;;;
2024/01/26 01:24:29;;;;;;;6.4;5.2;;;;;;;6.27;100;947.3173;;;;
2024/01/26 01:26:55;;;;;;;5.6;4.1;;;;;;;6.31;100;947.3519;;;;
2024/01/26 01:29:20;;;;;;;4.8;4.2;;;;;;;6.31;100;947.3756;;;;
2024/01/26 01:31:45;;;;;;;6.1;4.6;;;;;;;6.29;100;947.2897;;;;
2024/01/26 01:34:10;;;;;;;6.4;4.5;;;;;;;6.27;100;947.3585;;;;
2024/01/26 01:36:35;;;;;;;5.8;4.7;;;;;;;6.26;100;947.3831;;;;
2024/01/26 01:39:01;;;;;;;5.7;4.3;;;;;;;6.26;100;947.3531;;;;
2024/01/26 01:41:25;;;;;;;6.6;4.5;;;;;;;6.27;100;947.3636;;;;
2024/01/26 01:43:50;;;;;;;5;4.1;;;;;;;6.29;100;947.4381;;;;
2024/01/26 01:46:15;;;;;;;5.3;4;;;;;;;6.31;100;947.4715;;;;
2024/01/26 01:48:40;;;;;;;4.6;3.8;;;;;;;6.3;100;947.49;;;;
2024/01/26 01:51:06;;;;;;;5.9;3.6;;;;;;;6.29;100;947.4754;;;;
2024/01/26 01:53:31;;;;;;;5.3;3.9;;;;;;;6.3;100;947.5051;;;;
2024/01/26 01:55:56;;;;;;;5;3.4;;;;;;;6.29;100;947.5396;;;;
2024/01/26 01:58:21;;;;;;;3.6;3.3;;;;;;;6.3;100;947.5273;;;;
2024/01/26 02:00:47;;;;;;;5;3.8;;;;;;;6.3;100;947.4752;;;;
2024/01/26 02:03:11;;;;;;;4.2;3.5;;;;;;;6.27;100;947.5562;;;;
2024/01/26 02:05:37;;;;;;;4.7;3.6;;;;;;;6.27;100;947.5313;;;;
2024/01/26 02:08:02;;;;;;;6.5;4.2;;;;;;;6.3;100;947.4623;;;;
2024/01/26 02:10:27;;;;;;;6.1;4.3;;;;;;;6.32;100;947.5033;;;;
2024/01/26 02:12:52;;;;;;;4.3;3.6;;;;;;;6.29;100;947.4359;;;;
2024/01/26 02:17:22;;;;;;;5.3;3.9;;;;;;;6.32;100;947.5081;;;;
2024/01/26 02:19:47;;;;;;;4.7;4;;;;;;;6.29;100;947.4352;;;;
2024/01/26 02:22:12;;;;;;;5.5;4.1;;;;;;;6.31;100;947.3377;;;;
2024/01/26 02:24:38;;;;;;;6.4;4.4;;;;;;;6.31;100;947.3994;;;;
2024/01/26 02:27:04;;;;;;;7.3;4.5;;;;;;;6.29;100;947.394;;;;
2024/01/26 02:29:28;;;;;;;5.5;3.8;;;;;;;6.31;100;947.3695;;;;
2024/01/26 02:31:53;;;;;;;4.6;4;;;;;;;6.35;100;947.4001;;;;
2024/01/26 02:34:18;;;;;;;6.5;4.8;;;;;;;6.32;100;947.3778;;;;
2024/01/26 02:36:43;;;;;;;5.4;4.6;;;;;;;6.31;100;947.3727;;;;
2024/01/26 02:39:10;;;;;;;6.2;4.3;;;;;;;6.33;100;947.4011;;;;
2024/01/26 02:41:33;;;;;;;5;4.2;;;;;;;6.33;100;947.4214;;;;
2024/01/26 02:43:59;;;;;;;3.7;3.3;;;;;;;6.37;100;947.4875;;;;
2024/01/26 02:46:24;;;;;;;4.6;3.2;;;;;;;6.34;100;947.5471;;;;
2024/01/26 02:48:49;;;;;;;4.8;3.8;;;;;;;6.34;100;947.5771;;;;
2024/01/26 02:51:14;;;;;;;3.8;3.2;;;;;;;6.39;100;947.5228;;;;
2024/01/26 02:53:40;;;;;;;4.2;3.5;;;;;;;6.37;100;947.4595;;;;
2024/01/26 02:56:04;;;;;;;3.6;3;;;;;;;6.35;100;947.546;;;;
2024/01/26 02:58:29;;;;;;;4.7;3.6;;;;;;;6.34;100;947.5369;;;;
2024/01/26 03:00:54;;;;;;;4.4;3.5;;;;;;;6.31;100;947.5648;;;;
2024/01/26 03:03:20;;;;;;;4.8;3.5;;;;;;;6.29;100;947.5631;;;;
2024/01/26 03:05:45;;;;;;;3.6;3.1;;;;;;;6.4;100;947.6252;;;;
2024/01/26 03:08:10;;;;;;;3.5;3.2;;;;;;;6.39;100;947.6138;;;;
2024/01/26 03:10:35;;;;;;;3.6;2.7;;;;;;;6.45;100;947.6022;;;;
2024/01/26 03:13:00;;;;;;;3.2;2.9;;;;;;;6.36;100;947.6181;;;;
2024/01/26 03:15:25;;;;;;;4;3.1;;;;;;;6.36;100;947.5739;;;;
2024/01/26 03:17:50;;;;;;;3.6;3.1;;;;;;;6.36;100;947.6404;;;;
2024/01/26 03:20:16;;;;;;;3.1;2.8;;;;;;;6.39;100;947.7389;;;;
2024/01/26 03:22:43;;;;;;;3.7;3.1;;;;;;;6.4;100;947.7242;;;;
2024/01/26 03:25:06;;;;;;;3.5;2.8;;;;;;;6.39;100;947.7333;;;;
2024/01/26 03:27:30;;;;;;;4;2.8;;;;;;;6.41;100;947.7525;;;;
2024/01/26 03:29:56;;;;;;;4.1;3;;;;;;;6.39;100;947.8275;;;;
2024/01/26 03:32:21;;;;;;;4.1;3.2;;;;;;;6.39;100;947.9177;;;;
2024/01/26 03:34:46;;;;;;;3.3;2.7;;;;;;;6.37;100;947.9097;;;;
2024/01/26 03:37:11;;;;;;;4.4;2.8;;;;;;;6.34;100;947.9514;;;;
2024/01/26 03:39:36;;;;;;;3.7;2.8;;;;;;;6.37;100;948.003;;;;
2024/01/26 03:42:01;;;;;;;3.2;2.7;;;;;;;6.36;100;948.0231;;;;
2024/01/26 03:44:26;;;;;;;2.8;2.3;;;;;;;6.31;100;947.9736;;;;
2024/01/26 03:46:51;;;;;;;3.5;2.6;;;;;;;6.33;100;948.1193;;;;
2024/01/26 03:49:17;;;;;;;4.5;3.3;;;;;;;6.34;100;948.0879;;;;
2024/01/26 03:51:42;;;;;;;4.2;3.2;;;;;;;6.37;100;948.0902;;;;
2024/01/26 03:54:07;;;;;;;3.1;2.4;;;;;;;6.36;100;948.0667;;;;
2024/01/26 03:56:32;;;;;;;4.6;2.9;;;;;;;6.36;100;948.1504;;;;
2024/01/26 03:58:57;;;;;;;3.7;3;;;;;;;6.34;100;948.1679;;;;
2024/01/26 04:02:27;;;;;;;4.4;3.2;;;;;;;6.34;100;948.2715;;;;
2024/01/26 04:04:52;;;;;;;5.8;3.6;;;;;;;6.34;100;948.2598;;;;
2024/01/26 04:07:17;;;;;;;4.8;3.3;;;;;;;6.34;100;948.2756;;;;
2024/01/26 04:09:43;;;;;;;4.5;3.1;;;;;;;6.38;100;948.2869;;;;
2024/01/26 04:12:08;;;;;;;4.4;3.4;;;;;;;6.41;100;948.262;;;;
2024/01/26 04:14:33;;;;;;;4.9;3.4;;;;;;;6.4;100;948.305;;;;
2024/01/26 04:16:58;;;;;;;3.9;3.1;;;;;;;6.42;100;948.3611;;;;
2024/01/26 04:19:23;;;;;;;3.2;2.8;;;;;;;6.4;100;948.3792;;;;
2024/01/26 04:21:51;;;;;;;3.3;3;;;;;;;6.4;100;948.2502;;;;
2024/01/26 04:24:13;;;;;;;4.3;2.6;;;;;;;6.37;100;948.3845;;;;
2024/01/26 04:26:39;;;;;;;3;2.7;;;;;;;6.41;100;948.3847;;;;
2024/01/26 04:29:04;;;;;;;3.6;2.9;;;;;;;6.38;100;948.3474;;;;
2024/01/26 04:31:29;;;;;;;3;2.7;;;;;;;6.35;100;948.3647;;;;
2024/01/26 04:33:54;;;;;;;3.4;2.6;;;;;;;6.4;100;948.421;;;;
2024/01/26 04:36:19;;;;;;;4.5;2.7;;;;;;;6.42;100;948.3828;;;;
2024/01/26 04:38:53;;;;;;;4.1;3;;;;;;;6.41;100;948.3903;;;;
2024/01/26 04:41:09;;;;;;;4.2;3.2;;;;;;;6.42;100;948.3923;;;;
2024/01/26 04:43:34;;;;;;;5.7;3.5;;;;;;;6.5;100;948.4264;;;;
2024/01/26 04:45:59;;;;;;;3.4;3.1;;;;;;;6.52;100;948.4288;;;;
2024/01/26 04:48:24;;;;;;;3.4;3.1;;;;;;;6.52;100;948.4487;;;;
2024/01/26 04:50:50;;;;;;;3.5;3.1;;;;;;;6.53;100;948.533;;;;
2024/01/26 04:53:15;;;;;;;4.9;3.4;;;;;;;6.5;100;948.5397;;;;
2024/01/26 04:55:40;;;;;;;3.9;3.5;;;;;;;6.46;100;948.545;;;;
2024/01/26 04:58:05;;;;;;;4.3;3.6;;;;;;;6.44;100;948.4965;;;;
2024/01/26 05:00:30;;;;;;;6.1;4.1;;;;;;;6.42;100;948.5779;;;;
2024/01/26 05:02:55;;;;;;;4.7;4;;;;;;;6.41;100;948.58;;;;
2024/01/26 05:05:20;;;;;;;5.6;4.2;;;;;;;6.4;100;948.6428;;;;
2024/01/26 05:07:46;;;;;;;7.9;5.1;;;;;;;6.39;100;948.6764;;;;
2024/01/26 05:10:11;;;;;;;5.4;4.3;;;;;;;6.42;100;948.7061;;;;
2024/01/26 05:12:37;;;;;;;4.8;3.8;;;;;;;6.57;100;948.7481;;;;
2024/01/26 05:15:02;;;;;;;4.8;3.9;;;;;;;6.45;100;948.7322;;;;
2024/01/26 05:17:26;;;;;;;5;3.6;;;;;;;6.4;100;948.7614;;;;
2024/01/26 05:19:51;;;;;;;6.6;4.5;;;;;;;6.38;100;948.8532;;;;
2024/01/26 05:22:17;;;;;;;8.5;4.7;;;;;;;6.37;100;948.8929;;;;
2024/01/26 05:24:41;;;;;;;17.3;10;;;;;;;6.37;100;948.8828;;;;
2024/01/26 05:27:07;;;;;;;12.8;8.1;;;;;;;6.41;100;948.8173;;;;
2024/01/26 05:29:32;;;;;;;10.4;7.5;;;;;;;6.43;100;948.8262;;;;
2024/01/26 05:31:57;;;;;;;10;6.8;;;;;;;6.35;100;948.8239;;;;
2024/01/26 05:34:22;;;;;;;8;5.6;;;;;;;6.34;100;948.8608;;;;
2024/01/26 05:36:47;;;;;;;9.3;5.5;;;;;;;6.31;100;948.7732;;;;
2024/01/26 05:39:12;;;;;;;10.5;5.4;;;;;;;6.33;100;948.733;;;;
2024/01/26 05:41:37;;;;;;;10.3;6.7;;;;;;;6.47;100;948.8214;;;;
2024/01/26 05:44:02;;;;;;;7;5;;;;;;;6.43;100;948.7001;;;;
2024/01/26 05:46:28;;;;;;;9.1;4.9;;;;;;;6.45;100;948.6987;;;;
2024/01/26 05:48:53;;;;;;;8;4.8;;;;;;;6.36;100;948.6015;;;;
2024/01/26 05:51:18;;;;;;;7.1;5.3;;;;;;;6.36;100;948.6971;;;;
2024/01/26 05:53:43;;;;;;;4.9;4.3;;;;;;;6.46;100;948.6144;;;;
2024/01/26 05:56:08;;;;;;;7.2;4.8;;;;;;;6.36;100;948.5854;;;;
2024/01/26 05:58:33;;;;;;;7.1;4.8;;;;;;;6.36;100;948.6212;;;;
2024/01/26 06:00:58;;;;;;;5.2;3.9;;;;;;;6.36;100;948.6411;;;;
2024/01/26 06:03:24;;;;;;;8.6;6.2;;;;;;;6.37;100;948.7278;;;;
2024/01/26 06:05:49;;;;;;;8.9;7;;;;;;;6.37;100;948.7769;;;;
2024/01/26 06:08:14;;;;;;;7.1;5.9;;;;;;;6.36;100;948.8461;;;;
2024/01/26 06:10:39;;;;;;;4.8;4.3;;;;;;;6.37;100;948.7706;;;;
2024/01/26 06:13:05;;;;;;;5.6;4.1;;;;;;;6.35;100;948.6942;;;;
2024/01/26 06:15:29;;;;;;;4.4;4;;;;;;;6.37;100;948.7662;;;;
2024/01/26 06:17:54;;;;;;;4.5;3.6;;;;;;;6.41;100;948.7795;;;;
2024/01/26 06:20:19;;;;;;;3.3;3;;;;;;;6.38;100;948.7061;;;;
2024/01/26 06:22:44;;;;;;;3.9;3;;;;;;;6.43;100;948.7375;;;;
2024/01/26 06:25:09;;;;;;;3.3;2.6;;;;;;;6.45;100;948.7709;;;;
2024/01/26 06:27:35;;;;;;;2.3;2.1;;;;;;;6.43;100;948.7628;;;;
2024/01/26 06:30:00;;;;;;;4;2.4;;;;;;;6.44;100;948.7623;;;;
2024/01/26 06:32:25;;;;;;;2.4;2.2;;;;;;;6.44;100;948.8281;;;;
2024/01/26 06:34:50;;;;;;;1.9;1.7;;;;;;;6.43;100;948.8981;;;;
2024/01/26 06:37:15;;;;;;;3.1;2;;;;;;;6.44;100;948.7869;;;;
2024/01/26 06:39:40;;;;;;;3.1;2.4;;;;;;;6.43;100;948.7366;;;;
2024/01/26 06:42:05;;;;;;;4;3.5;;;;;;;6.46;100;948.6992;;;;
2024/01/26 06:44:31;;;;;;;4.3;3.9;;;;;;;6.35;100;948.7764;;;;
2024/01/26 06:46:56;;;;;;;5.9;4.5;;;;;;;6.34;100;948.7977;;;;
2024/01/26 06:49:21;;;;;;;7.5;6.2;;;;;;;6.35;100;948.6935;;;;
2024/01/26 06:51:46;;;;;;;9.2;7;;;;;;;6.32;100;948.7333;;;;
2024/01/26 06:54:11;;;;;;;9.6;7.2;;;;;;;6.35;100;948.7609;;;;
2024/01/26 06:56:36;;;;;;;7.5;6.1;;;;;;;6.32;100;948.769;;;;
2024/01/26 06:59:01;;;;;;;7.9;5.4;;;;;;;6.33;100;948.6886;;;;
2024/01/26 07:01:26;;;;;;;6;5.1;;;;;;;6.31;100;948.6277;;;;
2024/01/26 07:03:51;;;;;;;7.9;5.7;;;;;;;6.3;100;948.7065;;;;
2024/01/26 07:06:16;;;;;;;6.2;5.1;;;;;;;6.31;100;948.6191;;;;
2024/01/26 07:08:42;;;;;;;11.5;8.2;;;;;;;6.29;100;948.6284;;;;
2024/01/26 07:11:07;;;;;;;11.9;7.7;;;;;;;6.31;100;948.6674;;;;
2024/01/26 07:13:32;;;;;;;9.9;7.9;;;;;;;6.29;100;948.6039;;;;
2024/01/26 07:15:57;;;;;;;9.9;7.7;;;;;;;6.29;100;948.4998;;;;
2024/01/26 07:18:22;;;;;;;8.7;6.7;;;;;;;6.28;100;948.5309;;;;
2024/01/26 07:20:47;;;;;;;7.4;5;;;;;;;6.38;100;948.3897;;;;
2024/01/26 07:23:12;;;;;;;5.9;5.1;;;;;;;6.31;100;948.4166;;;;
2024/01/26 07:25:37;;;;;;;7.3;5.7;;;;;;;6.34;100;948.426;;;;
2024/01/26 07:28:02;;;;;;;6.9;5.5;;;;;;;6.36;100;948.3872;;;;
2024/01/26 07:30:27;;;;;;;6.6;4.9;;;;;;;6.37;100;948.4272;;;;
2024/01/26 07:32:52;;;;;;;8.8;5.8;;;;;;;6.38;100;948.4819;;;;
2024/01/26 07:35:18;;;;;;;7.5;5.3;;;;;;;6.37;100;948.5062;;;;
2024/01/26 07:37:43;;;;;;;6.7;5.1;;;;;;;6.37;100;948.5131;;;;
2024/01/26 07:40:08;;;;;;;7;5.2;;;;;;;6.47;100;948.637;;;;
2024/01/26 07:42:33;;;;;;;13.2;9.7;;;;;;;6.48;100;948.606;;;;
2024/01/26 07:44:58;;;;;;;10.8;7.7;;;;;;;6.52;100;948.5514;;;;
2024/01/26 07:47:24;;;;;;;9.7;7.2;;;;;;;6.51;100;948.4664;;;;
2024/01/26 07:49:49;;;;;;;8.9;6.6;;;;;;;6.48;100;948.5655;;;;
2024/01/26 07:52:13;;;;;;;8.1;5.9;;;;;;;6.5;100;948.5084;;;;
2024/01/26 07:54:38;;;;;;;6.6;5.4;;;;;;;6.51;100;948.4657;;;;
2024/01/26 07:57:03;;;;;;;7.8;5.8;;;;;;;6.53;100;948.4529;;;;
2024/01/26 07:59:28;;;;;;;9;6.8;;;;;;;6.54;100;948.4041;;;;
2024/01/26 08:01:54;;;;;;;10.1;7.2;;;;;;;6.56;100;948.3317;;;;
2024/01/26 08:04:19;;;;;;;8.1;6.2;;;;;;;6.65;100;948.3836;;;;
2024/01/26 08:06:44;;;;;;;6.7;5.3;;;;;;;6.68;100;948.4285;;;;
2024/01/26 08:09:10;;;;;;;7.4;5.6;;;;;;;6.65;100;948.3284;;;;
2024/01/26 08:11:34;;;;;;;7.3;5.2;;;;;;;6.68;100;948.3365;;;;
2024/01/26 08:14:00;;;;;;;6.5;5;;;;;;;6.75;100;948.4033;;;;
2024/01/26 08:17:30;;;;;;;7.6;5.9;;;;;;;6.84;100;948.0522;;;;
2024/01/26 08:19:57;;;;;;;9.5;6.3;;;;;;;6.93;100;948.145;;;;
2024/01/26 08:22:20;;;;;;;8.9;6.6;;;;;;;7.01;100;948.1817;;;;
2024/01/26 08:24:45;;;;;;;9;6;;;;;;;7.1;100;948.2104;;;;
2024/01/26 08:27:10;;;;;;;9;5.9;;;;;;;7.18;100;948.2081;;;;
2024/01/26 08:29:35;;;;;;;6.4;5.1;;;;;;;7.12;100;948.2136;;;;
2024/01/26 08:32:01;;;;;;;5.8;4.8;;;;;;;7.15;100;948.182;;;;
2024/01/26 08:34:25;;;;;;;6.4;5.3;;;;;;;7.16;100;948.196;;;;
2024/01/26 08:36:50;;;;;;;6.1;4.9;;;;;;;7.19;100;948.1013;;;;
2024/01/26 08:39:16;;;;;;;6.2;5.5;;;;;;;7.26;100;947.9927;;;;
2024/01/26 08:41:43;;;;;;;6.4;5.6;;;;;;;7.31;100;948.0762;;;;
2024/01/26 08:44:06;;;;;;;6.4;4.7;;;;;;;7.33;100;948.0111;;;;
2024/01/26 08:46:31;;;;;;;5.4;4.6;;;;;;;7.42;100;947.9426;;;;
2024/01/26 08:48:56;;;;;;;5.5;4.2;;;;;;;7.48;100;947.9154;;;;
2024/01/26 08:51:21;;;;;;;6.7;6;;;;;;;7.58;100;947.812;;;;
2024/01/26 08:53:46;;;;;;;7.2;6.5;;;;;;;7.66;100;947.7383;;;;
2024/01/26 08:56:12;;;;;;;7.1;5.7;;;;;;;7.73;100;947.7416;;;;
2024/01/26 08:58:37;;;;;;;5.8;5.2;;;;;;;7.85;100;947.6955;;;;
2024/01/26 09:01:02;;;;;;;6.4;5.4;;;;;;;8;100;947.8272;;;;
2024/01/26 09:03:27;;;;;;;8.9;7.1;;;;;;;8.13;100;947.8599;;;;
2024/01/26 09:05:52;;;;;;;7.4;5.1;;;;;;;8.26;100;947.8805;;;;
2024/01/26 09:08:17;;;;;;;4.1;3.7;;;;;;;8.34;100;947.9391;;;;
2024/01/26 09:10:42;;;;;;;3;2.4;;;;;;;8.45;100;947.8879;;;;
2024/01/26 09:13:07;;;;;;;3;2;;;;;;;8.51;100;947.7955;;;;
2024/01/26 09:15:32;;;;;;;3.6;2.2;;;;;;;8.61;100;947.8047;;;;
2024/01/26 09:17:58;;;;;;;1.7;1.6;;;;;;;8.55;100;947.8936;;;;
2024/01/26 09:20:22;;;;;;;2.8;1.9;;;;;;;8.64;100;947.8358;;;;
2024/01/26 09:22:47;;;;;;;1.5;1.4;;;;;;;8.79;99.58105;947.6816;;;;
2024/01/26 09:25:13;;;;;;;1.7;1.4;;;;;;;9.07;99.4541;947.7132;;;;
2024/01/26 09:27:38;;;;;;;5.7;4.5;;;;;;;9.81;100;947.598;;;;
2024/01/26 09:30:03;;;;;;;7.8;5.8;;;;;;;10.62;96.69043;947.5341;;;;
2024/01/26 09:32:28;;;;;;;7.9;5.5;;;;;;;11.22;91.48535;947.5497;;;;
2024/01/26 09:34:53;;;;;;;6.7;4.3;;;;;;;11.34;88.05566;947.5728;;;;
2024/01/26 09:37:20;;;;;;;4.6;2.9;;;;;;;11.35;86.9248;947.5413;;;;
2024/01/26 09:39:44;;;;;;;3.7;2.2;;;;;;;11.33;85.92676;947.5096;;;;
2024/01/26 09:42:09;;;;;;;2.2;1.8;;;;;;;11.23;83.81348;947.4852;;;;
2024/01/26 09:44:33;;;;;;;4.5;1.9;;;;;;;11.08;84.18555;947.4483;;;;
2024/01/26 09:46:58;;;;;;;2.4;2.2;;;;;;;;;;;;;
2024/01/26 09:49:27;;;;;;;4;2.6;;;;;;;;;;;;;
2024/01/26 09:51:49;;;;;;;3.5;2.5;;;;;;;;;;;;;
2024/01/26 09:54:14;;;;;;;4.2;2.3;;;;;;;;;;;;;
2024/01/26 09:56:39;;;;;;;4;2.5;;;;;;;;;;;;;
2024/01/26 09:59:04;;;;;;;3.5;2.8;;;;;;;;;;;;;
2024/01/26 10:01:29;;;;;;;3.9;2.9;;;;;;;;;;;;;
2024/01/26 10:03:56;;;;;;;4.1;2.8;;;;;;;;;;;;;
2024/01/26 10:06:19;;;;;;;4.9;2.9;;;;;;;;;;;;;
2024/01/26 10:08:44;;;;;;;4.4;3.5;;;;;;;;;;;;;
2024/01/26 10:11:10;;;;;;;4.9;3.8;;;;;;;;;;;;;
2024/01/26 10:13:35;;;;;;;7;3.5;;;;;;;;;;;;;
2024/01/26 10:16:00;;;;;;;3.9;3.1;;;;;;;;;;;;;
2024/01/26 10:18:25;;;;;;;3.9;2.9;;;;;;;;;;;;;
2024/01/26 10:20:50;;;;;;;3;2.5;;;;;;;;;;;;;
2024/01/26 10:23:15;;;;;;;3.5;2.1;;;;;;;;;;;;;
2024/01/26 10:25:40;;;;;;;2.1;1.8;;;;;;;;;;;;;
2024/01/26 10:28:05;;;;;;;2.4;1.8;;;;;;;;;;;;;
2024/01/26 10:30:31;;;;;;;3.6;2.5;;;;;;;;;;;;;
2024/01/26 10:32:55;;;;;;;4.3;2.9;;;;;;;;;;;;;
2024/01/26 10:35:21;;;;;;;2.6;2.2;;;;;;;;;;;;;
2024/01/26 10:37:46;;;;;;;2.5;1.9;;;;;;;;;;;;;
2024/01/26 10:40:11;;;;;;;1.8;1.7;;;;;;;;;;;;;
2024/01/26 10:42:36;;;;;;;2.1;1.5;;;;;;;;;;;;;
2024/01/26 10:45:02;;;;;;;1.5;1.4;;;;;;;;;;;;;
2024/01/26 10:47:27;;;;;;;2.2;1.6;;;;;;;;;;;;;
2024/01/26 10:49:52;;;;;;;1.9;1.4;;;;;;;;;;;;;
2024/01/26 10:52:17;;;;;;;1.8;1.3;;;;;;;;;;;;;
2024/01/26 10:54:42;;;;;;;2.4;1.3;;;;;;;;;;;;;
2024/01/26 10:57:07;;;;;;;1.4;1.2;;;;;;;;;;;;;
2024/01/26 10:59:33;;;;;;;1.7;1.3;;;;;;;;;;;;;
2024/01/26 11:01:57;;;;;;;1.3;0.8;;;;;;;;;;;;;
2024/01/26 11:04:23;;;;;;;1.2;0.8;;;;;;;;;;;;;
2024/01/26 11:06:48;;;;;;;1.1;1;;;;;;;;;;;;;
2024/01/26 11:09:15;;;;;;;0.8;0.8;;;;;;;;;;;;;
2024/01/26 11:11:38;;;;;;;1.5;0.9;;;;;;;;;;;;;
2024/01/26 11:14:03;;;;;;;1.6;1.1;;;;;;;;;;;;;
2024/01/26 11:16:28;;;;;;;1.1;0.9;;;;;;;;;;;;;
2024/01/26 11:18:53;;;;;;;1.1;0.9;;;;;;;;;;;;;
2024/01/26 11:21:19;;;;;;;1.4;0.7;;;;;;;;;;;;;
2024/01/26 11:23:44;;;;;;;1.2;0.6;;;;;;;;;;;;;
2024/01/26 11:26:09;;;;;;;0.8;0.7;;;;;;;;;;;;;
2024/01/26 11:28:34;;;;;;;1.6;0.8;;;;;;;;;;;;;
2024/01/26 11:30:59;;;;;;;0.7;0.7;;;;;;;;;;;;;
2024/01/26 11:33:24;;;;;;;2.5;0.9;;;;;;;;;;;;;
2024/01/26 11:35:49;;;;;;;2;1.8;;;;;;;;;;;;;
2024/01/26 11:38:15;;;;;;;1.6;1.4;;;;;;;;;;;;;
2024/01/26 11:40:39;;;;;;;2.4;1.7;;;;;;;;;;;;;
2024/01/26 11:43:04;;;;;;;2.9;2.5;;;;;;;;;;;;;
2024/01/26 11:45:30;;;;;;;2.9;2.4;;;;;;;;;;;;;
2024/01/26 11:47:55;;;;;;;2.3;1.8;;;;;;;;;;;;;
2024/01/26 11:50:20;;;;;;;0.8;0.8;;;;;;;;;;;;;
2024/01/26 11:52:45;;;;;;;2.7;2;;;;;;;;;;;;;
2024/01/26 11:55:12;;;;;;;3.8;2.8;;;;;;;;;;;;;
2024/01/26 11:57:36;;;;;;;1.3;1.2;;;;;;;;;;;;;
2024/01/26 12:00:05;;;;;;;1.5;1;;;;;;;;;;;;;
2024/01/26 12:02:26;;;;;;;1.2;1.1;;;;;;;;;;;;;
2024/01/26 12:04:51;;;;;;;1.5;1.1;;;;;;;;;;;;;
2024/01/26 12:07:16;;;;;;;1.4;1;;;;;;;;;;;;;
2024/01/26 12:09:41;;;;;;;1.7;1.1;;;;;;;;;;;;;
2024/01/26 12:12:08;;;;;;;1.8;1.1;;;;;;;;;;;;;
2024/01/26 12:14:31;;;;;;;4.2;1.8;;;;;;;;;;;;;
2024/01/26 12:16:56;;;;;;;2.7;2.4;;;;;;;;;;;;;
2024/01/26 12:19:21;;;;;;;2.8;2.3;;;;;;;;;;;;;
2024/01/26 12:21:47;;;;;;;2.4;1.6;;;;;;;;;;;;;
2024/01/26 12:24:12;;;;;;;3.5;1.8;;;;;;;;;;;;;
2024/01/26 12:26:37;;;;;;;3.8;2.5;;;;;;;;;;;;;
2024/01/26 12:29:02;;;;;;;2.1;1.8;;;;;;;;;;;;;
2024/01/26 12:31:28;;;;;;;3.5;1.7;;;;;;;;;;;;;
2024/01/26 12:33:52;;;;;;;3.1;2.3;;;;;;;;;;;;;
2024/01/26 12:36:17;;;;;;;2.8;2;;;;;;;;;;;;;
2024/01/26 12:38:42;;;;;;;2.6;1.9;;;;;;;;;;;;;
2024/01/26 12:41:08;;;;;;;2;1.5;;;;;;;;;;;;;
2024/01/26 12:43:33;;;;;;;2.5;1.6;;;;;;;;;;;;;
2024/01/26 12:45:58;;;;;;;2.7;1.7;;;;;;;;;;;;;
2024/01/26 12:48:23;;;;;;;3.4;2.4;;;;;;;;;;;;;
2024/01/26 12:50:48;;;;;;;4.5;2.8;;;;;;;;;;;;;
2024/01/26 12:53:13;;;;;;;6.3;3.6;;;;;;;;;;;;;
2024/01/26 12:55:38;;;;;;;4.3;3;;;;;;;;;;;;;
2024/01/26 12:58:04;;;;;;;6.2;3.4;;;;;;;;;;;;;
2024/01/26 13:00:30;;;;;;;8.1;4.7;;;;;;;;;;;;;
2024/01/26 13:02:54;;;;;;;5.8;3.7;;;;;;;;;;;;;
2024/01/26 13:05:19;;;;;;;5.4;2.6;;;;;;;;;;;;;
2024/01/26 13:07:44;;;;;;;2.5;2.1;;;;;;;;;;;;;
2024/01/26 13:10:09;;;;;;;4.6;2.1;;;;;;;;;;;;;
2024/01/26 13:12:35;;;;;;;6.7;2.7;;;;;;;;;;;;;
2024/01/26 13:14:59;;;;;;;3.1;2.2;;;;;;;;;;;;;
2024/01/26 13:17:26;;;;;;;3.2;1.9;;;;;;;;;;;;;
2024/01/26 13:19:49;;;;;;;4.3;2;;;;;;;;;;;;;
2024/01/26 13:22:14;;;;;;;2.5;1.9;;;;;;;;;;;;;
2024/01/26 13:24:40;;;;;;;2.2;1.4;;;;;;;;;;;;;
2024/01/26 13:27:05;;;;;;;1.5;1.4;;;;;;;;;;;;;
2024/01/26 13:29:30;;;;;;;1.7;1.4;;;;;;;;;;;;;
2024/01/26 13:31:55;;;;;;;3.1;1.5;;;;;;;;;;;;;
2024/01/26 13:34:20;;;;;;;1.7;1.3;;;;;;;;;;;;;
2024/01/26 13:36:46;;;;;;;1.9;1.5;;;;;;;;;;;;;
2024/01/26 13:39:15;;;;;;;2;1.5;;;;;;;;;;;;;
2024/01/26 13:41:37;;;;;;;1.9;1.4;;;;;;;;;;;;;
2024/01/26 13:44:02;;;;;;;1.7;1.6;;;;;;;;;;;;;
2024/01/26 13:46:27;;;;;;;1.9;1.4;;;;;;;;;;;;;
2024/01/26 13:48:52;;;;;;;1.7;1.4;;;;;;;;;;;;;
2024/01/26 13:51:17;;;;;;;1.4;1.3;;;;;;;;;;;;;
2024/01/26 13:53:42;;;;;;;1.9;1.1;;;;;;;;;;;;;
2024/01/26 13:56:08;;;;;;;1.9;1.4;;;;;;;;;;;;;
2024/01/26 13:58:32;;;;;;;1.3;1.2;;;;;;;;;;;;;
2024/01/26 14:00:57;;;;;;;1.4;1.3;;;;;;;;;;;;;
2024/01/26 14:03:23;;;;;;;4.2;2;;;;;;;;;;;;;
2024/01/26 14:05:48;;;;;;;3.7;2.2;;;;;;;;;;;;;
2024/01/26 14:08:13;;;;;;;2.4;1.4;;;;;;;;;;;;;
2024/01/26 14:10:39;;;;;;;2.6;1.8;;;;;;;;;;;;;
2024/01/26 14:13:04;;;;;;;3.3;1.7;;;;;;;;;;;;;
2024/01/26 14:15:29;;;;;;;2.4;1.6;;;;;;;;;;;;;
2024/01/26 14:17:53;;;;;;;3.7;1.9;;;;;;;;;;;;;
2024/01/26 14:20:21;;;;;;;2.4;1.7;;;;;;;;;;;;;
2024/01/26 14:22:43;;;;;;;2.8;1.9;;;;;;;;;;;;;
2024/01/26 14:25:08;;;;;;;1.4;1;;;;;;;;;;;;;
2024/01/26 14:27:33;;;;;;;2.3;1.2;;;;;;;;;;;;;
2024/01/26 14:29:58;;;;;;;1.6;1.5;;;;;;;;;;;;;
2024/01/26 14:32:24;;;;;;;2.5;1.8;;;;;;;;;;;;;
2024/01/26 14:36:35;;;;;;;3.1;2.8;;;;;;;11.63;80.86914;945.3514;;;;
2024/01/26 14:39:03;;;;;;;3.2;2.2;;;;;;;11.57;81.74023;945.3661;;;;
2024/01/26 14:41:25;;;;;;;5.6;3.4;;;;;;;11.49;82.20508;945.4508;;;;
2024/01/26 14:43:50;;;;;;;6.7;4;;;;;;;11.44;83.58105;945.4556;;;;
2024/01/26 14:46:16;;;;;;;5.8;3.8;;;;;;;11.37;84.40234;945.5808;;;;
2024/01/26 14:48:41;;;;;;;4.1;3.3;;;;;;;11.34;86.00977;945.5651;;;;
2024/01/26 14:51:08;;;;;;;4.4;2.8;;;;;;;11.27;87.16211;945.6817;;;;
2024/01/26 14:53:31;;;;;;;3.6;2.7;;;;;;;11.31;85.89941;945.5869;;;;
2024/01/26 14:55:55;;;;;;;3.9;2.2;;;;;;;11.16;85.56055;945.6563;;;;
2024/01/26 14:58:20;;;;;;;2.3;2.1;;;;;;;11.15;85.35352;945.649;;;;
2024/01/26 15:00:45;;;;;;;4.5;2.9;;;;;;;11.07;86.14844;945.6633;;;;
2024/01/26 15:03:11;;;;;;;2.5;2.1;;;;;;;11.08;86.4707;945.6827;;;;
2024/01/26 15:05:36;;;;;;;1.9;1.3;;;;;;;11.01;87.49609;945.6857;;;;
2024/01/26 15:08:01;;;;;;;1.5;1.4;;;;;;;10.94;87.99805;945.6565;;;;
2024/01/26 15:10:26;;;;;;;2.5;2.3;;;;;;;10.87;89.36621;945.6344;;;;
2024/01/26 15:12:51;;;;;;;3.4;2.9;;;;;;;10.8;90.74609;945.5739;;;;
2024/01/26 15:15:18;;;;;;;4.5;2.7;;;;;;;10.81;90.94238;945.5513;;;;
2024/01/26 15:17:41;;;;;;;3.9;3.3;;;;;;;10.77;91.9502;945.652;;;;
2024/01/26 15:20:07;;;;;;;3.8;3.2;;;;;;;10.71;92.71484;945.5641;;;;
2024/01/26 15:22:31;;;;;;;4.7;3.3;;;;;;;10.74;91.9209;945.6069;;;;
2024/01/26 15:24:56;;;;;;;9;6.4;;;;;;;10.68;93.14355;945.6295;;;;
2024/01/26 15:27:24;;;;;;;13.8;10.4;;;;;;;10.58;93.78223;945.6383;;;;
2024/01/26 15:29:47;;;;;;;6.6;5.9;;;;;;;10.5;94.3584;945.6294;;;;
2024/01/26 15:32:12;;;;;;;5.1;3.7;;;;;;;10.51;93.42383;945.6074;;;;
2024/01/26 15:34:38;;;;;;;6.3;4.1;;;;;;;10.47;93.54004;945.6311;;;;
2024/01/26 15:37:03;;;;;;;9.1;5.5;;;;;;;10.47;94.0332;945.7332;;;;
2024/01/26 15:39:28;;;;;;;8.6;6.6;;;;;;;10.5;94.0957;945.6947;;;;
2024/01/26 15:41:53;;;;;;;9.5;6.7;;;;;;;10.49;94.49316;945.7111;;;;
2024/01/26 15:44:18;;;;;;;5.1;3.2;;;;;;;10.46;93.24121;945.5927;;;;
2024/01/26 15:46:43;;;;;;;5.2;3.3;;;;;;;10.42;93.23535;945.5616;;;;
2024/01/26 15:49:08;;;;;;;4.9;3;;;;;;;10.31;93.97656;945.6259;;;;
2024/01/26 15:51:33;;;;;;;5.3;3.4;;;;;;;10.33;94.41211;945.5951;;;;
2024/01/26 15:53:59;;;;;;;5.8;3.7;;;;;;;10.32;94.53613;945.7126;;;;
2024/01/26 15:56:23;;;;;;;4.6;3.7;;;;;;;10.34;94.03906;945.8144;;;;
2024/01/26 15:58:48;;;;;;;5.4;4.1;;;;;;;10.38;94.52637;945.7642;;;;
2024/01/26 16:01:13;;;;;;;5.4;4.4;;;;;;;10.28;94.50488;945.817;;;;
2024/01/26 16:03:39;;;;;;;7.4;4.8;;;;;;;10.26;94.11133;945.9112;;;;
2024/01/26 16:06:04;;;;;;;8.2;6.2;;;;;;;10.19;95.07813;945.9082;;;;
2024/01/26 16:08:29;;;;;;;10.4;7;;;;;;;10.12;95.33594;945.9431;;;;
2024/01/26 16:10:58;;;;;;;6.3;4.5;;;;;;;10.12;94.63086;945.9871;;;;
2024/01/26 16:13:19;;;;;;;4.5;3.4;;;;;;;10.21;94.21582;946.1772;;;;
2024/01/26 16:15:44;;;;;;;6.8;5;;;;;;;10.09;94.97461;946.2361;;;;
2024/01/26 16:18:09;;;;;;;6.8;5.3;;;;;;;10.07;96.26172;946.1807;;;;
2024/01/26 16:20:34;;;;;;;8.2;4.7;;;;;;;10.13;94.57422;946.2451;;;;
2024/01/26 16:23:00;;;;;;;8.7;5.5;;;;;;;10.11;93.77148;946.2978;;;;
2024/01/26 16:25:25;;;;;;;7.2;4.4;;;;;;;10.1;93.78125;946.3797;;;;
2024/01/26 16:27:50;;;;;;;2.9;2.5;;;;;;;10.17;92.92969;946.4634;;;;
2024/01/26 16:30:15;;;;;;;3.7;2.7;;;;;;;10.09;93.0127;946.3951;;;;
2024/01/26 16:32:40;;;;;;;2.9;2.2;;;;;;;10.12;93.125;946.4765;;;;
2024/01/26 16:35:06;;;;;;;3.2;2.2;;;;;;;10.15;91.79688;946.4978;;;;
2024/01/26 16:37:31;;;;;;;3.7;2.4;;;;;;;9.94;93.32617;946.5489;;;;